sensor_id;sensor_type;location;lat;lon;timestamp;P1;durP1;ratioP1;P2;durP2;ratioP2
6406;SDS011;3236;51.022;6.818;2024-02-26T00:01:31;2.67;;;1.60;;
6406;SDS011;3236;51.022;6.818;2024-02-26T00:03:59;1.50;;;1.20;;
6406;SDS011;3236;51.022;6.818;2024-02-26T00:06:27;1.77;;;1.20;;
6406;SDS011;3236;51.022;6.818;2024-02-26T00:08:54;2.05;;;1.27;;
6406;SDS011;3236;51.022;6.818;2024-02-26T00:11:23;2.13;;;1.52;;
6406;SDS011;3236;51.022;6.818;2024-02-26T00:13:50;2.63;;;1.55;;
6406;SDS011;3236;51.022;6.818;2024-02-26T00:16:17;3.70;;;1.73;;
6406;SDS011;3236;51.022;6.818;2024-02-26T00:18:47;1.95;;;1.30;;
6406;SDS011;3236;51.022;6.818;2024-02-26T00:21:14;3.95;;;1.42;;
6406;SDS011;3236;51.022;6.818;2024-02-26T00:23:41;2.67;;;1.50;;
6406;SDS011;3236;51.022;6.818;2024-02-26T00:26:09;2.63;;;1.38;;
6406;SDS011;3236;51.022;6.818;2024-02-26T00:28:41;3.65;;;1.33;;
6406;SDS011;3236;51.022;6.818;2024-02-26T00:31:09;1.63;;;1.00;;
6406;SDS011;3236;51.022;6.818;2024-02-26T00:33:36;3.45;;;1.25;;
6406;SDS011;3236;51.022;6.818;2024-02-26T00:36:05;3.42;;;1.50;;
6406;SDS011;3236;51.022;6.818;2024-02-26T00:38:33;1.67;;;1.20;;
6406;SDS011;3236;51.022;6.818;2024-02-26T00:41:00;1.50;;;1.23;;
6406;SDS011;3236;51.022;6.818;2024-02-26T00:43:31;1.88;;;1.30;;
6406;SDS011;3236;51.022;6.818;2024-02-26T00:45:59;2.55;;;1.40;;
6406;SDS011;3236;51.022;6.818;2024-02-26T00:48:27;1.25;;;1.13;;
6406;SDS011;3236;51.022;6.818;2024-02-26T00:50:54;2.53;;;1.20;;
6406;SDS011;3236;51.022;6.818;2024-02-26T00:53:21;2.05;;;1.00;;
6406;SDS011;3236;51.022;6.818;2024-02-26T00:55:50;1.88;;;1.00;;
6406;SDS011;3236;51.022;6.818;2024-02-26T00:58:17;2.90;;;1.45;;
6406;SDS011;3236;51.022;6.818;2024-02-26T01:00:45;1.13;;;1.02;;
6406;SDS011;3236;51.022;6.818;2024-02-26T01:03:13;2.95;;;0.90;;
6406;SDS011;3236;51.022;6.818;2024-02-26T01:05:41;2.67;;;1.05;;
6406;SDS011;3236;51.022;6.818;2024-02-26T01:08:08;2.30;;;0.95;;
6406;SDS011;3236;51.022;6.818;2024-02-26T01:10:35;3.42;;;1.05;;
6406;SDS011;3236;51.022;6.818;2024-02-26T01:13:04;3.42;;;1.00;;
6406;SDS011;3236;51.022;6.818;2024-02-26T01:15:33;3.03;;;0.85;;
6406;SDS011;3236;51.022;6.818;2024-02-26T01:17:59;2.85;;;1.23;;
6406;SDS011;3236;51.022;6.818;2024-02-26T01:20:30;3.35;;;1.13;;
6406;SDS011;3236;51.022;6.818;2024-02-26T01:22:57;3.80;;;1.17;;
6406;SDS011;3236;51.022;6.818;2024-02-26T01:25:24;1.50;;;0.90;;
6406;SDS011;3236;51.022;6.818;2024-02-26T01:27:51;2.33;;;1.08;;
6406;SDS011;3236;51.022;6.818;2024-02-26T01:30:18;1.30;;;1.08;;
6406;SDS011;3236;51.022;6.818;2024-02-26T01:32:46;1.88;;;1.25;;
6406;SDS011;3236;51.022;6.818;2024-02-26T01:35:16;2.60;;;0.90;;
6406;SDS011;3236;51.022;6.818;2024-02-26T01:37:47;3.67;;;1.08;;
6406;SDS011;3236;51.022;6.818;2024-02-26T01:40:14;1.35;;;1.00;;
6406;SDS011;3236;51.022;6.818;2024-02-26T01:42:44;1.48;;;1.00;;
6406;SDS011;3236;51.022;6.818;2024-02-26T01:45:14;5.85;;;1.33;;
6406;SDS011;3236;51.022;6.818;2024-02-26T01:47:46;2.05;;;1.10;;
6406;SDS011;3236;51.022;6.818;2024-02-26T01:50:14;2.22;;;1.60;;
6406;SDS011;3236;51.022;6.818;2024-02-26T01:52:41;2.22;;;1.35;;
6406;SDS011;3236;51.022;6.818;2024-02-26T01:55:09;4.00;;;1.70;;
6406;SDS011;3236;51.022;6.818;2024-02-26T01:57:40;2.42;;;1.40;;
6406;SDS011;3236;51.022;6.818;2024-02-26T02:00:08;3.13;;;1.48;;
6406;SDS011;3236;51.022;6.818;2024-02-26T02:02:36;4.43;;;1.48;;
6406;SDS011;3236;51.022;6.818;2024-02-26T02:05:07;2.50;;;1.40;;
6406;SDS011;3236;51.022;6.818;2024-02-26T02:07:41;2.65;;;1.20;;
6406;SDS011;3236;51.022;6.818;2024-02-26T02:10:10;5.65;;;1.48;;
6406;SDS011;3236;51.022;6.818;2024-02-26T02:12:37;2.22;;;1.15;;
6406;SDS011;3236;51.022;6.818;2024-02-26T02:15:05;2.90;;;1.20;;
6406;SDS011;3236;51.022;6.818;2024-02-26T02:17:33;1.30;;;1.20;;
6406;SDS011;3236;51.022;6.818;2024-02-26T02:20:00;2.13;;;1.00;;
6406;SDS011;3236;51.022;6.818;2024-02-26T02:22:30;3.22;;;0.90;;
6406;SDS011;3236;51.022;6.818;2024-02-26T02:24:58;1.10;;;0.90;;
6406;SDS011;3236;51.022;6.818;2024-02-26T02:27:26;0.77;;;0.70;;
6406;SDS011;3236;51.022;6.818;2024-02-26T02:29:56;0.85;;;0.82;;
6406;SDS011;3236;51.022;6.818;2024-02-26T02:32:23;1.88;;;0.85;;
6406;SDS011;3236;51.022;6.818;2024-02-26T02:34:58;1.67;;;0.95;;
6406;SDS011;3236;51.022;6.818;2024-02-26T02:37:25;1.38;;;0.98;;
6406;SDS011;3236;51.022;6.818;2024-02-26T02:39:53;3.13;;;0.77;;
6406;SDS011;3236;51.022;6.818;2024-02-26T02:42:22;0.68;;;0.68;;
6406;SDS011;3236;51.022;6.818;2024-02-26T02:44:49;1.00;;;0.90;;
6406;SDS011;3236;51.022;6.818;2024-02-26T02:47:16;1.33;;;1.15;;
6406;SDS011;3236;51.022;6.818;2024-02-26T02:49:43;1.55;;;1.13;;
6406;SDS011;3236;51.022;6.818;2024-02-26T02:52:10;2.13;;;0.88;;
6406;SDS011;3236;51.022;6.818;2024-02-26T02:54:37;2.25;;;0.98;;
6406;SDS011;3236;51.022;6.818;2024-02-26T02:57:08;0.80;;;0.80;;
6406;SDS011;3236;51.022;6.818;2024-02-26T02:59:35;3.75;;;1.15;;
6406;SDS011;3236;51.022;6.818;2024-02-26T03:02:02;1.50;;;0.90;;
6406;SDS011;3236;51.022;6.818;2024-02-26T03:04:29;2.95;;;1.00;;
6406;SDS011;3236;51.022;6.818;2024-02-26T03:06:56;2.20;;;0.93;;
6406;SDS011;3236;51.022;6.818;2024-02-26T03:09:23;2.20;;;1.10;;
6406;SDS011;3236;51.022;6.818;2024-02-26T03:11:50;1.08;;;0.90;;
6406;SDS011;3236;51.022;6.818;2024-02-26T03:14:19;1.92;;;1.00;;
6406;SDS011;3236;51.022;6.818;2024-02-26T03:16:46;1.20;;;0.90;;
6406;SDS011;3236;51.022;6.818;2024-02-26T03:19:14;1.83;;;0.90;;
6406;SDS011;3236;51.022;6.818;2024-02-26T03:21:40;3.45;;;0.77;;
6406;SDS011;3236;51.022;6.818;2024-02-26T03:24:07;2.47;;;1.00;;
6406;SDS011;3236;51.022;6.818;2024-02-26T03:26:35;0.90;;;0.80;;
6406;SDS011;3236;51.022;6.818;2024-02-26T03:29:02;0.82;;;0.82;;
6406;SDS011;3236;51.022;6.818;2024-02-26T03:31:31;4.72;;;1.10;;
6406;SDS011;3236;51.022;6.818;2024-02-26T03:33:58;3.15;;;1.10;;
6406;SDS011;3236;51.022;6.818;2024-02-26T03:36:25;1.50;;;1.08;;
6406;SDS011;3236;51.022;6.818;2024-02-26T03:38:52;1.88;;;0.80;;
6406;SDS011;3236;51.022;6.818;2024-02-26T03:41:19;2.08;;;0.98;;
6406;SDS011;3236;51.022;6.818;2024-02-26T03:43:45;3.20;;;0.90;;
6406;SDS011;3236;51.022;6.818;2024-02-26T03:46:12;1.15;;;0.90;;
6406;SDS011;3236;51.022;6.818;2024-02-26T03:48:41;1.88;;;0.93;;
6406;SDS011;3236;51.022;6.818;2024-02-26T03:51:08;0.95;;;0.85;;
6406;SDS011;3236;51.022;6.818;2024-02-26T03:53:36;1.08;;;0.93;;
6406;SDS011;3236;51.022;6.818;2024-02-26T03:56:03;1.38;;;0.90;;
6406;SDS011;3236;51.022;6.818;2024-02-26T03:58:30;2.50;;;1.02;;
6406;SDS011;3236;51.022;6.818;2024-02-26T04:00:58;1.30;;;0.85;;
6406;SDS011;3236;51.022;6.818;2024-02-26T04:03:28;3.55;;;1.08;;
6406;SDS011;3236;51.022;6.818;2024-02-26T04:05:56;1.58;;;0.80;;
6406;SDS011;3236;51.022;6.818;2024-02-26T04:08:23;1.65;;;1.00;;
6406;SDS011;3236;51.022;6.818;2024-02-26T04:10:50;1.40;;;0.90;;
6406;SDS011;3236;51.022;6.818;2024-02-26T04:13:17;1.10;;;0.88;;
6406;SDS011;3236;51.022;6.818;2024-02-26T04:15:44;3.90;;;1.10;;
6406;SDS011;3236;51.022;6.818;2024-02-26T04:18:18;1.40;;;0.93;;
6406;SDS011;3236;51.022;6.818;2024-02-26T04:20:44;2.58;;;1.10;;
6406;SDS011;3236;51.022;6.818;2024-02-26T04:23:13;1.00;;;0.90;;
6406;SDS011;3236;51.022;6.818;2024-02-26T04:25:40;1.60;;;0.90;;
6406;SDS011;3236;51.022;6.818;2024-02-26T04:28:07;1.95;;;1.23;;
6406;SDS011;3236;51.022;6.818;2024-02-26T04:30:33;2.42;;;1.05;;
6406;SDS011;3236;51.022;6.818;2024-02-26T04:33:00;1.50;;;1.10;;
6406;SDS011;3236;51.022;6.818;2024-02-26T04:35:28;4.30;;;1.25;;
6406;SDS011;3236;51.022;6.818;2024-02-26T04:37:56;1.77;;;1.10;;
6406;SDS011;3236;51.022;6.818;2024-02-26T04:40:24;2.63;;;1.02;;
6406;SDS011;3236;51.022;6.818;2024-02-26T04:42:51;1.33;;;1.08;;
6406;SDS011;3236;51.022;6.818;2024-02-26T04:45:18;2.53;;;1.00;;
6406;SDS011;3236;51.022;6.818;2024-02-26T04:47:45;2.45;;;1.00;;
6406;SDS011;3236;51.022;6.818;2024-02-26T04:50:12;1.80;;;1.17;;
6406;SDS011;3236;51.022;6.818;2024-02-26T04:52:40;2.58;;;1.40;;
6406;SDS011;3236;51.022;6.818;2024-02-26T04:55:07;2.80;;;1.67;;
6406;SDS011;3236;51.022;6.818;2024-02-26T04:57:35;1.20;;;1.10;;
6406;SDS011;3236;51.022;6.818;2024-02-26T05:00:03;3.63;;;1.10;;
6406;SDS011;3236;51.022;6.818;2024-02-26T05:02:31;2.28;;;1.30;;
6406;SDS011;3236;51.022;6.818;2024-02-26T05:04:58;2.67;;;1.45;;
6406;SDS011;3236;51.022;6.818;2024-02-26T05:07:25;2.63;;;1.40;;
6406;SDS011;3236;51.022;6.818;2024-02-26T05:09:52;8.40;;;2.17;;
6406;SDS011;3236;51.022;6.818;2024-02-26T05:12:21;3.63;;;1.52;;
6406;SDS011;3236;51.022;6.818;2024-02-26T05:14:49;3.42;;;1.40;;
6406;SDS011;3236;51.022;6.818;2024-02-26T05:17:16;2.15;;;1.23;;
6406;SDS011;3236;51.022;6.818;2024-02-26T05:19:43;3.75;;;1.60;;
6406;SDS011;3236;51.022;6.818;2024-02-26T05:22:10;1.55;;;1.33;;
6406;SDS011;3236;51.022;6.818;2024-02-26T05:24:37;2.28;;;1.65;;
6406;SDS011;3236;51.022;6.818;2024-02-26T05:27:06;2.65;;;1.52;;
6406;SDS011;3236;51.022;6.818;2024-02-26T05:29:33;3.97;;;1.75;;
6406;SDS011;3236;51.022;6.818;2024-02-26T05:32:02;2.85;;;2.30;;
6406;SDS011;3236;51.022;6.818;2024-02-26T05:34:29;5.70;;;2.92;;
6406;SDS011;3236;51.022;6.818;2024-02-26T05:36:57;4.45;;;2.03;;
6406;SDS011;3236;51.022;6.818;2024-02-26T05:39:24;2.08;;;1.67;;
6406;SDS011;3236;51.022;6.818;2024-02-26T05:41:51;1.98;;;1.77;;
6406;SDS011;3236;51.022;6.818;2024-02-26T05:44:18;2.42;;;1.20;;
6406;SDS011;3236;51.022;6.818;2024-02-26T05:46:45;2.40;;;1.40;;
6406;SDS011;3236;51.022;6.818;2024-02-26T05:49:14;4.03;;;1.63;;
6406;SDS011;3236;51.022;6.818;2024-02-26T05:51:41;3.83;;;1.40;;
6406;SDS011;3236;51.022;6.818;2024-02-26T05:54:14;3.88;;;1.40;;
6406;SDS011;3236;51.022;6.818;2024-02-26T05:56:41;2.80;;;1.45;;
6406;SDS011;3236;51.022;6.818;2024-02-26T05:59:09;2.85;;;1.50;;
6406;SDS011;3236;51.022;6.818;2024-02-26T06:01:36;4.57;;;1.42;;
6406;SDS011;3236;51.022;6.818;2024-02-26T06:04:03;1.77;;;1.27;;
6406;SDS011;3236;51.022;6.818;2024-02-26T06:06:32;3.40;;;1.50;;
6406;SDS011;3236;51.022;6.818;2024-02-26T06:08:59;1.75;;;1.65;;
6406;SDS011;3236;51.022;6.818;2024-02-26T06:11:26;3.58;;;1.33;;
6406;SDS011;3236;51.022;6.818;2024-02-26T06:13:53;3.58;;;1.50;;
6406;SDS011;3236;51.022;6.818;2024-02-26T06:16:26;1.30;;;1.20;;
6406;SDS011;3236;51.022;6.818;2024-02-26T06:18:57;3.95;;;1.40;;
6406;SDS011;3236;51.022;6.818;2024-02-26T06:21:25;3.30;;;1.48;;
6406;SDS011;3236;51.022;6.818;2024-02-26T06:23:54;2.90;;;1.30;;
6406;SDS011;3236;51.022;6.818;2024-02-26T06:26:21;3.45;;;1.80;;
6406;SDS011;3236;51.022;6.818;2024-02-26T06:28:48;1.70;;;1.45;;
6406;SDS011;3236;51.022;6.818;2024-02-26T06:31:17;1.90;;;1.63;;
6406;SDS011;3236;51.022;6.818;2024-02-26T06:33:45;1.52;;;1.23;;
6406;SDS011;3236;51.022;6.818;2024-02-26T06:36:13;2.90;;;1.50;;
6406;SDS011;3236;51.022;6.818;2024-02-26T06:38:40;3.45;;;1.70;;
6406;SDS011;3236;51.022;6.818;2024-02-26T06:41:08;4.45;;;1.90;;
6406;SDS011;3236;51.022;6.818;2024-02-26T06:43:39;3.17;;;1.70;;
6406;SDS011;3236;51.022;6.818;2024-02-26T06:46:06;3.10;;;1.58;;
6406;SDS011;3236;51.022;6.818;2024-02-26T06:48:36;4.05;;;1.95;;
6406;SDS011;3236;51.022;6.818;2024-02-26T06:51:03;2.50;;;1.70;;
6406;SDS011;3236;51.022;6.818;2024-02-26T06:53:30;4.80;;;1.83;;
6406;SDS011;3236;51.022;6.818;2024-02-26T06:56:04;2.40;;;1.92;;
6406;SDS011;3236;51.022;6.818;2024-02-26T06:58:33;2.15;;;1.60;;
6406;SDS011;3236;51.022;6.818;2024-02-26T07:01:03;3.75;;;1.55;;
6406;SDS011;3236;51.022;6.818;2024-02-26T07:03:30;3.15;;;1.60;;
6406;SDS011;3236;51.022;6.818;2024-02-26T07:05:58;2.40;;;1.77;;
6406;SDS011;3236;51.022;6.818;2024-02-26T07:08:31;1.77;;;1.67;;
6406;SDS011;3236;51.022;6.818;2024-02-26T07:10:59;2.28;;;1.52;;
6406;SDS011;3236;51.022;6.818;2024-02-26T07:13:26;4.00;;;1.90;;
6406;SDS011;3236;51.022;6.818;2024-02-26T07:15:55;3.30;;;2.05;;
6406;SDS011;3236;51.022;6.818;2024-02-26T07:18:21;3.45;;;1.58;;
6406;SDS011;3236;51.022;6.818;2024-02-26T07:20:48;3.10;;;1.60;;
6406;SDS011;3236;51.022;6.818;2024-02-26T07:23:16;2.42;;;1.77;;
6406;SDS011;3236;51.022;6.818;2024-02-26T07:25:43;2.85;;;1.77;;
6406;SDS011;3236;51.022;6.818;2024-02-26T07:28:12;3.03;;;2.22;;
6406;SDS011;3236;51.022;6.818;2024-02-26T07:30:39;4.38;;;2.30;;
6406;SDS011;3236;51.022;6.818;2024-02-26T07:33:07;5.50;;;2.17;;
6406;SDS011;3236;51.022;6.818;2024-02-26T07:35:34;7.50;;;2.63;;
6406;SDS011;3236;51.022;6.818;2024-02-26T07:38:03;2.53;;;1.75;;
6406;SDS011;3236;51.022;6.818;2024-02-26T07:40:30;5.03;;;2.28;;
6406;SDS011;3236;51.022;6.818;2024-02-26T07:42:59;3.00;;;2.15;;
6406;SDS011;3236;51.022;6.818;2024-02-26T07:45:26;4.93;;;2.03;;
6406;SDS011;3236;51.022;6.818;2024-02-26T07:47:53;4.03;;;2.38;;
6406;SDS011;3236;51.022;6.818;2024-02-26T07:50:25;3.58;;;1.85;;
6406;SDS011;3236;51.022;6.818;2024-02-26T07:55:19;2.17;;;1.65;;
6406;SDS011;3236;51.022;6.818;2024-02-26T07:57:47;3.10;;;1.98;;
6406;SDS011;3236;51.022;6.818;2024-02-26T08:00:14;4.43;;;2.10;;
6406;SDS011;3236;51.022;6.818;2024-02-26T08:02:42;3.15;;;1.70;;
6406;SDS011;3236;51.022;6.818;2024-02-26T08:05:09;3.75;;;1.65;;
6406;SDS011;3236;51.022;6.818;2024-02-26T08:07:38;2.30;;;1.80;;
6406;SDS011;3236;51.022;6.818;2024-02-26T08:10:05;2.95;;;1.90;;
6406;SDS011;3236;51.022;6.818;2024-02-26T08:12:33;5.00;;;2.30;;
6406;SDS011;3236;51.022;6.818;2024-02-26T08:15:00;3.45;;;2.30;;
6406;SDS011;3236;51.022;6.818;2024-02-26T08:17:27;2.63;;;1.90;;
6406;SDS011;3236;51.022;6.818;2024-02-26T08:20:07;4.68;;;2.08;;
6406;SDS011;3236;51.022;6.818;2024-02-26T08:22:35;3.60;;;1.92;;
6406;SDS011;3236;51.022;6.818;2024-02-26T08:25:05;3.75;;;2.10;;
6406;SDS011;3236;51.022;6.818;2024-02-26T08:27:34;2.92;;;1.80;;
6406;SDS011;3236;51.022;6.818;2024-02-26T08:30:01;3.13;;;1.38;;
6406;SDS011;3236;51.022;6.818;2024-02-26T08:32:28;3.00;;;1.88;;
6406;SDS011;3236;51.022;6.818;2024-02-26T08:34:55;3.08;;;1.83;;
6406;SDS011;3236;51.022;6.818;2024-02-26T08:37:22;4.47;;;2.30;;
6406;SDS011;3236;51.022;6.818;2024-02-26T08:39:50;3.38;;;1.98;;
6406;SDS011;3236;51.022;6.818;2024-02-26T08:42:17;2.95;;;1.70;;
6406;SDS011;3236;51.022;6.818;2024-02-26T08:44:45;4.20;;;2.17;;
6406;SDS011;3236;51.022;6.818;2024-02-26T08:47:12;4.85;;;1.90;;
6406;SDS011;3236;51.022;6.818;2024-02-26T08:49:42;2.90;;;1.85;;
6406;SDS011;3236;51.022;6.818;2024-02-26T08:52:09;4.72;;;1.77;;
6406;SDS011;3236;51.022;6.818;2024-02-26T08:54:37;2.20;;;1.60;;
6406;SDS011;3236;51.022;6.818;2024-02-26T08:57:07;5.95;;;1.90;;
6406;SDS011;3236;51.022;6.818;2024-02-26T08:59:34;4.20;;;1.88;;
6406;SDS011;3236;51.022;6.818;2024-02-26T09:02:02;4.85;;;2.13;;
6406;SDS011;3236;51.022;6.818;2024-02-26T09:04:29;2.42;;;1.80;;
6406;SDS011;3236;51.022;6.818;2024-02-26T09:06:57;2.45;;;2.08;;
6406;SDS011;3236;51.022;6.818;2024-02-26T09:09:24;2.47;;;1.90;;
6406;SDS011;3236;51.022;6.818;2024-02-26T09:11:51;4.15;;;2.80;;
6406;SDS011;3236;51.022;6.818;2024-02-26T09:14:21;4.10;;;1.95;;
6406;SDS011;3236;51.022;6.818;2024-02-26T09:16:48;4.25;;;2.08;;
6406;SDS011;3236;51.022;6.818;2024-02-26T09:19:16;3.88;;;2.33;;
6406;SDS011;3236;51.022;6.818;2024-02-26T09:21:46;5.57;;;2.53;;
6406;SDS011;3236;51.022;6.818;2024-02-26T09:24:13;2.72;;;2.20;;
6406;SDS011;3236;51.022;6.818;2024-02-26T09:26:41;4.65;;;2.13;;
6406;SDS011;3236;51.022;6.818;2024-02-26T09:29:08;3.35;;;2.33;;
6406;SDS011;3236;51.022;6.818;2024-02-26T09:31:37;2.35;;;1.90;;
6406;SDS011;3236;51.022;6.818;2024-02-26T09:34:06;6.80;;;2.60;;
6406;SDS011;3236;51.022;6.818;2024-02-26T09:36:36;5.53;;;2.35;;
6406;SDS011;3236;51.022;6.818;2024-02-26T09:39:03;3.83;;;2.30;;
6406;SDS011;3236;51.022;6.818;2024-02-26T09:41:32;8.88;;;2.67;;
6406;SDS011;3236;51.022;6.818;2024-02-26T09:43:59;5.00;;;2.45;;
6406;SDS011;3236;51.022;6.818;2024-02-26T09:46:30;6.72;;;2.88;;
6406;SDS011;3236;51.022;6.818;2024-02-26T09:48:59;5.57;;;3.00;;
6406;SDS011;3236;51.022;6.818;2024-02-26T09:51:25;3.88;;;2.85;;
6406;SDS011;3236;51.022;6.818;2024-02-26T09:53:53;8.02;;;3.72;;
6406;SDS011;3236;51.022;6.818;2024-02-26T09:56:22;4.82;;;3.03;;
6406;SDS011;3236;51.022;6.818;2024-02-26T09:58:50;7.95;;;2.88;;
6406;SDS011;3236;51.022;6.818;2024-02-26T10:01:21;7.07;;;3.53;;
6406;SDS011;3236;51.022;6.818;2024-02-26T10:03:51;4.35;;;2.88;;
6406;SDS011;3236;51.022;6.818;2024-02-26T10:06:25;5.40;;;2.67;;
6406;SDS011;3236;51.022;6.818;2024-02-26T10:08:53;5.03;;;2.63;;
6406;SDS011;3236;51.022;6.818;2024-02-26T10:11:23;3.30;;;2.40;;
6406;SDS011;3236;51.022;6.818;2024-02-26T10:13:51;2.10;;;1.90;;
6406;SDS011;3236;51.022;6.818;2024-02-26T10:16:18;9.02;;;2.30;;
6406;SDS011;3236;51.022;6.818;2024-02-26T10:18:46;2.85;;;1.92;;
6406;SDS011;3236;51.022;6.818;2024-02-26T10:21:13;3.45;;;2.25;;
6406;SDS011;3236;51.022;6.818;2024-02-26T10:23:44;5.25;;;3.08;;
6406;SDS011;3236;51.022;6.818;2024-02-26T10:26:12;2.83;;;2.22;;
6406;SDS011;3236;51.022;6.818;2024-02-26T10:28:41;6.25;;;2.83;;
6406;SDS011;3236;51.022;6.818;2024-02-26T10:31:09;3.67;;;2.88;;
6406;SDS011;3236;51.022;6.818;2024-02-26T10:33:37;6.10;;;2.72;;
6406;SDS011;3236;51.022;6.818;2024-02-26T10:36:05;4.47;;;2.53;;
6406;SDS011;3236;51.022;6.818;2024-02-26T10:38:34;8.65;;;3.03;;
6406;SDS011;3236;51.022;6.818;2024-02-26T10:41:03;3.78;;;2.45;;
6406;SDS011;3236;51.022;6.818;2024-02-26T10:43:30;3.80;;;2.90;;
6406;SDS011;3236;51.022;6.818;2024-02-26T10:45:58;5.70;;;3.30;;
6406;SDS011;3236;51.022;6.818;2024-02-26T10:48:25;6.95;;;3.40;;
6406;SDS011;3236;51.022;6.818;2024-02-26T10:50:52;3.13;;;2.70;;
6406;SDS011;3236;51.022;6.818;2024-02-26T10:53:21;6.32;;;3.10;;
6406;SDS011;3236;51.022;6.818;2024-02-26T10:55:51;6.30;;;2.95;;
6406;SDS011;3236;51.022;6.818;2024-02-26T10:58:22;4.80;;;3.35;;
6406;SDS011;3236;51.022;6.818;2024-02-26T11:00:50;4.45;;;3.20;;
6406;SDS011;3236;51.022;6.818;2024-02-26T11:03:18;4.55;;;2.78;;
6406;SDS011;3236;51.022;6.818;2024-02-26T11:05:47;5.13;;;3.08;;
6406;SDS011;3236;51.022;6.818;2024-02-26T11:08:17;7.40;;;3.05;;
6406;SDS011;3236;51.022;6.818;2024-02-26T11:10:46;3.38;;;2.35;;
6406;SDS011;3236;51.022;6.818;2024-02-26T11:13:14;4.28;;;2.75;;
6406;SDS011;3236;51.022;6.818;2024-02-26T11:15:45;4.63;;;3.08;;
6406;SDS011;3236;51.022;6.818;2024-02-26T11:18:14;5.68;;;3.42;;
6406;SDS011;3236;51.022;6.818;2024-02-26T11:20:42;5.00;;;2.90;;
6406;SDS011;3236;51.022;6.818;2024-02-26T11:23:11;5.13;;;2.92;;
6406;SDS011;3236;51.022;6.818;2024-02-26T11:25:40;3.22;;;2.60;;
6406;SDS011;3236;51.022;6.818;2024-02-26T11:28:08;3.17;;;2.30;;
6406;SDS011;3236;51.022;6.818;2024-02-26T11:30:46;4.72;;;2.95;;
6406;SDS011;3236;51.022;6.818;2024-02-26T11:33:15;4.32;;;2.70;;
6406;SDS011;3236;51.022;6.818;2024-02-26T11:35:42;5.95;;;2.78;;
6406;SDS011;3236;51.022;6.818;2024-02-26T11:38:09;5.20;;;2.50;;
6406;SDS011;3236;51.022;6.818;2024-02-26T11:40:50;2.60;;;2.03;;
6406;SDS011;3236;51.022;6.818;2024-02-26T11:43:18;6.55;;;2.83;;
6406;SDS011;3236;51.022;6.818;2024-02-26T11:45:50;5.68;;;2.83;;
6406;SDS011;3236;51.022;6.818;2024-02-26T11:48:24;5.78;;;2.72;;
6406;SDS011;3236;51.022;6.818;2024-02-26T11:50:52;3.70;;;2.30;;
6406;SDS011;3236;51.022;6.818;2024-02-26T11:53:21;4.43;;;2.70;;
6406;SDS011;3236;51.022;6.818;2024-02-26T11:58:46;5.25;;;2.80;;
6406;SDS011;3236;51.022;6.818;2024-02-26T12:04:05;4.45;;;2.50;;
6406;SDS011;3236;51.022;6.818;2024-02-26T12:06:41;3.92;;;2.28;;
6406;SDS011;3236;51.022;6.818;2024-02-26T12:09:18;3.53;;;2.70;;
6406;SDS011;3236;51.022;6.818;2024-02-26T12:12:10;4.90;;;2.65;;
6406;SDS011;3236;51.022;6.818;2024-02-26T12:14:50;3.72;;;2.95;;
6406;SDS011;3236;51.022;6.818;2024-02-26T12:17:21;2.67;;;2.10;;
6406;SDS011;3236;51.022;6.818;2024-02-26T12:19:49;4.90;;;2.63;;
6406;SDS011;3236;51.022;6.818;2024-02-26T12:22:19;6.25;;;3.30;;
6406;SDS011;3236;51.022;6.818;2024-02-26T12:24:50;3.65;;;2.60;;
6406;SDS011;3236;51.022;6.818;2024-02-26T12:27:29;3.33;;;2.50;;
6406;SDS011;3236;51.022;6.818;2024-02-26T12:29:58;5.22;;;2.90;;
6406;SDS011;3236;51.022;6.818;2024-02-26T12:32:27;4.55;;;2.50;;
6406;SDS011;3236;51.022;6.818;2024-02-26T12:35:02;5.10;;;2.65;;
6406;SDS011;3236;51.022;6.818;2024-02-26T12:37:29;4.95;;;2.92;;
6406;SDS011;3236;51.022;6.818;2024-02-26T12:39:57;3.75;;;2.85;;
6406;SDS011;3236;51.022;6.818;2024-02-26T12:42:24;6.13;;;3.28;;
6406;SDS011;3236;51.022;6.818;2024-02-26T12:44:54;4.32;;;2.97;;
6406;SDS011;3236;51.022;6.818;2024-02-26T12:47:21;5.88;;;3.20;;
6406;SDS011;3236;51.022;6.818;2024-02-26T12:49:50;4.97;;;3.60;;
6406;SDS011;3236;51.022;6.818;2024-02-26T12:52:17;4.25;;;2.80;;
6406;SDS011;3236;51.022;6.818;2024-02-26T12:54:44;5.45;;;2.90;;
6406;SDS011;3236;51.022;6.818;2024-02-26T12:57:11;6.20;;;3.80;;
6406;SDS011;3236;51.022;6.818;2024-02-26T12:59:39;5.70;;;3.42;;
6406;SDS011;3236;51.022;6.818;2024-02-26T13:02:06;8.10;;;3.78;;
6406;SDS011;3236;51.022;6.818;2024-02-26T13:04:34;7.10;;;4.45;;
6406;SDS011;3236;51.022;6.818;2024-02-26T13:07:04;6.13;;;3.35;;
6406;SDS011;3236;51.022;6.818;2024-02-26T13:09:34;4.82;;;3.22;;
6406;SDS011;3236;51.022;6.818;2024-02-26T13:12:03;6.70;;;4.87;;
6406;SDS011;3236;51.022;6.818;2024-02-26T13:14:31;5.78;;;3.60;;
6406;SDS011;3236;51.022;6.818;2024-02-26T13:16:59;5.03;;;3.85;;
6406;SDS011;3236;51.022;6.818;2024-02-26T13:19:27;10.02;;;4.20;;
6406;SDS011;3236;51.022;6.818;2024-02-26T13:21:54;9.55;;;4.32;;
6406;SDS011;3236;51.022;6.818;2024-02-26T13:24:23;6.80;;;3.78;;
6406;SDS011;3236;51.022;6.818;2024-02-26T13:26:55;8.48;;;4.57;;
6406;SDS011;3236;51.022;6.818;2024-02-26T13:29:23;10.77;;;5.15;;
6406;SDS011;3236;51.022;6.818;2024-02-26T13:31:54;8.45;;;4.50;;
6406;SDS011;3236;51.022;6.818;2024-02-26T13:34:25;8.15;;;4.82;;
6406;SDS011;3236;51.022;6.818;2024-02-26T13:36:52;7.68;;;4.80;;
6406;SDS011;3236;51.022;6.818;2024-02-26T13:39:25;11.88;;;5.15;;
6406;SDS011;3236;51.022;6.818;2024-02-26T13:41:52;10.40;;;5.22;;
6406;SDS011;3236;51.022;6.818;2024-02-26T13:44:22;9.85;;;5.53;;
6406;SDS011;3236;51.022;6.818;2024-02-26T13:46:49;9.35;;;5.78;;
6406;SDS011;3236;51.022;6.818;2024-02-26T13:49:16;11.43;;;5.30;;
6406;SDS011;3236;51.022;6.818;2024-02-26T13:51:44;10.27;;;5.88;;
6406;SDS011;3236;51.022;6.818;2024-02-26T13:54:11;8.70;;;5.25;;
6406;SDS011;3236;51.022;6.818;2024-02-26T13:56:41;9.77;;;5.80;;
6406;SDS011;3236;51.022;6.818;2024-02-26T13:59:09;8.60;;;6.20;;
6406;SDS011;3236;51.022;6.818;2024-02-26T14:01:36;12.27;;;6.97;;
6406;SDS011;3236;51.022;6.818;2024-02-26T14:04:03;15.90;;;7.10;;
6406;SDS011;3236;51.022;6.818;2024-02-26T14:06:32;11.20;;;8.23;;
6406;SDS011;3236;51.022;6.818;2024-02-26T14:08:59;14.50;;;8.68;;
6406;SDS011;3236;51.022;6.818;2024-02-26T14:11:35;20.63;;;10.43;;
6406;SDS011;3236;51.022;6.818;2024-02-26T14:14:07;17.30;;;9.68;;
6406;SDS011;3236;51.022;6.818;2024-02-26T14:16:34;24.52;;;10.85;;
6406;SDS011;3236;51.022;6.818;2024-02-26T14:19:03;18.10;;;11.82;;
6406;SDS011;3236;51.022;6.818;2024-02-26T14:21:32;22.05;;;12.93;;
6406;SDS011;3236;51.022;6.818;2024-02-26T14:24:03;20.85;;;13.18;;
6406;SDS011;3236;51.022;6.818;2024-02-26T14:26:30;22.77;;;13.95;;
6406;SDS011;3236;51.022;6.818;2024-02-26T14:28:58;25.13;;;13.32;;
6406;SDS011;3236;51.022;6.818;2024-02-26T14:31:26;25.42;;;13.38;;
6406;SDS011;3236;51.022;6.818;2024-02-26T14:33:56;23.25;;;14.40;;
6406;SDS011;3236;51.022;6.818;2024-02-26T14:36:23;27.35;;;14.35;;
6406;SDS011;3236;51.022;6.818;2024-02-26T14:38:51;25.13;;;14.30;;
6406;SDS011;3236;51.022;6.818;2024-02-26T14:41:18;22.65;;;14.25;;
6406;SDS011;3236;51.022;6.818;2024-02-26T14:43:46;25.50;;;14.93;;
6406;SDS011;3236;51.022;6.818;2024-02-26T14:46:12;22.40;;;13.98;;
6406;SDS011;3236;51.022;6.818;2024-02-26T14:48:41;21.25;;;13.02;;
6406;SDS011;3236;51.022;6.818;2024-02-26T14:51:20;22.55;;;13.38;;
6406;SDS011;3236;51.022;6.818;2024-02-26T14:53:52;23.83;;;14.27;;
6406;SDS011;3236;51.022;6.818;2024-02-26T14:56:19;21.95;;;14.30;;
6406;SDS011;3236;51.022;6.818;2024-02-26T14:58:46;18.50;;;12.80;;
6406;SDS011;3236;51.022;6.818;2024-02-26T15:01:13;24.33;;;13.75;;
6406;SDS011;3236;51.022;6.818;2024-02-26T15:03:42;25.45;;;14.10;;
6406;SDS011;3236;51.022;6.818;2024-02-26T15:06:12;20.00;;;11.88;;
6406;SDS011;3236;51.022;6.818;2024-02-26T15:08:41;20.73;;;13.15;;
6406;SDS011;3236;51.022;6.818;2024-02-26T15:11:19;21.17;;;12.82;;
6406;SDS011;3236;51.022;6.818;2024-02-26T15:13:51;24.65;;;12.15;;
6406;SDS011;3236;51.022;6.818;2024-02-26T15:16:20;18.52;;;11.50;;
6406;SDS011;3236;51.022;6.818;2024-02-26T15:18:49;20.42;;;11.00;;
6406;SDS011;3236;51.022;6.818;2024-02-26T15:21:16;19.40;;;11.60;;
6406;SDS011;3236;51.022;6.818;2024-02-26T15:23:44;19.00;;;10.82;;
6406;SDS011;3236;51.022;6.818;2024-02-26T15:26:11;18.17;;;10.48;;
6406;SDS011;3236;51.022;6.818;2024-02-26T15:28:39;20.05;;;11.13;;